createdAt,value
2023-02-27T00:01:26.020Z,49.80
2023-02-27T00:04:29.424Z,49.80
2023-02-27T00:07:34.037Z,49.60
2023-02-27T00:10:37.276Z,49.70
2023-02-27T00:13:41.007Z,49.10
2023-02-27T00:16:44.238Z,48.90
2023-02-27T00:19:47.455Z,49.60
2023-02-27T00:22:52.038Z,48.90
2023-02-27T00:25:55.854Z,49.00
2023-02-27T00:28:59.071Z,48.80
2023-02-27T00:32:02.351Z,48.80
2023-02-27T00:35:05.735Z,48.90
2023-02-27T00:38:10.863Z,49.10
2023-02-27T00:41:14.115Z,49.50
2023-02-27T00:44:17.295Z,49.70
2023-02-27T00:47:20.512Z,49.90
2023-02-27T00:50:24.143Z,50.50
2023-02-27T00:53:28.798Z,50.90
2023-02-27T00:56:32.234Z,51.70
2023-02-27T00:59:35.431Z,51.90
2023-02-27T01:02:39.273Z,52.50
2023-02-27T01:05:42.531Z,52.80
2023-02-27T01:08:47.074Z,52.90
2023-02-27T01:11:50.272Z,53.50
2023-02-27T01:14:53.480Z,53.80
2023-02-27T01:17:56.648Z,53.90
2023-02-27T01:20:59.821Z,54.10
2023-02-27T01:24:04.494Z,54.50
2023-02-27T01:27:07.688Z,54.70
2023-02-27T01:30:12.720Z,54.70
2023-02-27T01:33:16.147Z,54.90
2023-02-27T01:36:19.317Z,55.30
2023-02-27T01:39:23.842Z,55.60
2023-02-27T01:42:29.147Z,56.00
2023-02-27T01:45:34.971Z,56.00
2023-02-27T01:48:40.677Z,56.20
2023-02-27T01:51:47.314Z,56.20
2023-02-27T01:54:51.829Z,56.40
2023-02-27T01:57:55.993Z,56.50
2023-02-27T02:00:59.207Z,56.80
2023-02-27T02:04:07.023Z,57.20
2023-02-27T02:07:12.890Z,57.20
2023-02-27T02:10:18.753Z,56.90
2023-02-27T02:13:23.083Z,56.80
2023-02-27T02:16:43.874Z,57.60
2023-02-27T02:20:23.081Z,58.40
2023-02-27T02:24:01.714Z,58.70
2023-02-27T02:27:19.122Z,58.70
2023-02-27T02:31:00.371Z,59.10
2023-02-27T02:34:43.790Z,59.30
2023-02-27T02:41:43.807Z,59.90
2023-02-27T02:44:59.273Z,60.50
2023-02-27T02:48:10.578Z,61.00
2023-02-27T02:51:21.423Z,60.90
2023-02-27T02:54:32.760Z,61.40
2023-02-27T02:57:41.867Z,61.70
2023-02-27T03:00:50.020Z,62.50
2023-02-27T03:03:57.499Z,62.80
2023-02-27T03:07:06.256Z,63.70
2023-02-27T03:10:13.944Z,64.40
2023-02-27T03:13:23.158Z,64.70
2023-02-27T03:16:33.331Z,64.90
2023-02-27T03:19:42.725Z,65.50
2023-02-27T03:22:50.400Z,65.60
2023-02-27T03:25:58.141Z,66.10
2023-02-27T03:29:05.835Z,66.70
2023-02-27T03:32:14.368Z,67.00
2023-02-27T03:35:17.598Z,67.40
2023-02-27T03:38:29.058Z,67.90
2023-02-27T03:41:36.518Z,67.60
2023-02-27T03:44:52.528Z,67.60
2023-02-27T03:47:55.798Z,68.00
2023-02-27T03:50:59.061Z,68.30
2023-02-27T03:54:07.908Z,68.30
2023-02-27T03:57:13.464Z,68.30
2023-02-27T04:00:21.366Z,68.80
2023-02-27T04:03:25.100Z,68.90
2023-02-27T04:06:45.951Z,68.50
2023-02-27T04:10:30.878Z,69.10
2023-02-27T04:13:55.911Z,69.20
2023-02-27T04:17:16.112Z,68.90
2023-02-27T04:20:30.381Z,68.90
2023-02-27T04:23:39.577Z,68.30
2023-02-27T04:26:47.876Z,68.30
2023-02-27T04:29:56.701Z,69.80
2023-02-27T04:33:08.681Z,69.50
2023-02-27T04:36:17.792Z,70.00
2023-02-27T04:39:25.301Z,70.40
2023-02-27T04:42:33.243Z,70.50
2023-02-27T04:45:41.398Z,70.50
2023-02-27T04:48:53.313Z,70.40
2023-02-27T04:52:02.072Z,70.30
2023-02-27T04:55:09.313Z,70.30
2023-02-27T04:58:15.055Z,70.30
2023-02-27T05:01:23.031Z,70.80
2023-02-27T05:04:31.364Z,70.80
2023-02-27T05:07:38.791Z,71.00
2023-02-27T05:10:47.986Z,71.20
2023-02-27T05:13:55.795Z,71.50
2023-02-27T05:17:05.979Z,71.40
2023-02-27T05:20:14.339Z,71.20
2023-02-27T05:23:23.792Z,71.30
2023-02-27T05:26:35.734Z,70.90
2023-02-27T05:29:46.735Z,70.90
2023-02-27T05:32:54.757Z,70.10
2023-02-27T05:36:06.573Z,70.00
2023-02-27T05:39:12.305Z,70.10
2023-02-27T05:42:21.215Z,70.30
2023-02-27T05:45:29.743Z,70.50
2023-02-27T05:48:37.530Z,70.90
2023-02-27T05:51:45.508Z,71.40
2023-02-27T05:54:52.910Z,71.20
2023-02-27T05:58:02.943Z,70.60
2023-02-27T06:01:07.998Z,70.20
2023-02-27T06:04:11.261Z,70.00
2023-02-27T06:07:16.558Z,69.80
2023-02-27T06:10:21.386Z,69.80
2023-02-27T06:13:26.116Z,69.80
2023-02-27T06:16:29.649Z,69.70
2023-02-27T06:19:33.034Z,69.70
2023-02-27T06:22:37.574Z,69.60
2023-02-27T06:25:42.391Z,69.60
2023-02-27T06:28:45.695Z,69.70
2023-02-27T06:31:48.926Z,70.10
2023-02-27T06:34:52.145Z,70.20
2023-02-27T06:37:56.693Z,69.90
2023-02-27T06:41:00.182Z,68.90
2023-02-27T06:44:03.543Z,68.80
2023-02-27T06:47:06.921Z,68.60
2023-02-27T06:50:12.370Z,68.50
2023-02-27T06:53:17.007Z,67.80
2023-02-27T06:56:20.190Z,67.50
2023-02-27T06:59:23.419Z,67.40
2023-02-27T07:02:26.766Z,67.20
2023-02-27T07:05:29.910Z,66.40
2023-02-27T07:08:35.980Z,66.20
2023-02-27T07:11:39.137Z,67.10
2023-02-27T07:14:42.604Z,65.60
2023-02-27T07:17:45.834Z,65.90
2023-02-27T07:20:52.124Z,66.40
2023-02-27T07:23:56.637Z,66.30
2023-02-27T07:26:59.784Z,64.60
2023-02-27T07:30:02.931Z,64.10
2023-02-27T07:33:06.766Z,61.60
2023-02-27T07:36:10.020Z,60.90
2023-02-27T07:39:14.832Z,60.80
2023-02-27T07:42:18.047Z,60.60
2023-02-27T07:45:22.444Z,58.40
2023-02-27T07:48:25.686Z,57.50
2023-02-27T07:51:29.403Z,56.50
2023-02-27T07:54:35.649Z,55.60
2023-02-27T07:57:39.197Z,54.40
2023-02-27T08:00:42.627Z,53.30
2023-02-27T08:03:45.909Z,52.40
2023-02-27T08:06:49.090Z,51.40
2023-02-27T08:09:53.923Z,50.70
2023-02-27T08:12:57.290Z,49.60
2023-02-27T08:16:00.495Z,48.50
2023-02-27T08:19:03.860Z,47.00
2023-02-27T08:22:07.031Z,47.50
2023-02-27T08:25:12.487Z,46.00
2023-02-27T08:28:15.792Z,45.30
2023-02-27T08:31:19.141Z,44.90
2023-02-27T08:34:22.417Z,44.20
2023-02-27T08:37:25.715Z,42.40
2023-02-27T08:40:30.276Z,41.40
2023-02-27T08:43:33.938Z,41.60
2023-02-27T08:46:37.116Z,41.40
2023-02-27T08:49:40.347Z,41.50
2023-02-27T08:52:43.554Z,41.40
2023-02-27T08:55:50.417Z,41.10
2023-02-27T08:58:53.673Z,41.60
2023-02-27T09:01:56.869Z,42.30
2023-02-27T09:05:00.255Z,40.80
2023-02-27T09:08:03.868Z,38.20
2023-02-27T09:11:08.797Z,38.10
2023-02-27T09:14:12.134Z,36.80
2023-02-27T09:17:15.287Z,37.20
2023-02-27T09:20:19.081Z,36.90
2023-02-27T09:23:22.950Z,36.00
2023-02-27T09:26:40.902Z,35.50
2023-02-27T09:29:48.997Z,35.70
2023-02-27T09:32:52.772Z,36.60
2023-02-27T09:35:56.096Z,36.20
2023-02-27T09:39:00.430Z,34.60
2023-02-27T09:42:09.715Z,33.60
2023-02-27T09:45:21.089Z,30.50
2023-02-27T09:48:31.100Z,30.00
2023-02-27T09:51:34.408Z,29.50
2023-02-27T09:54:37.599Z,29.90
2023-02-27T09:57:49.553Z,30.00
2023-02-27T10:00:57.244Z,30.00
2023-02-27T10:04:20.160Z,31.50
2023-02-27T10:07:27.856Z,31.60
2023-02-27T10:10:35.832Z,33.50
2023-02-27T10:13:53.813Z,35.10
2023-02-27T10:16:59.214Z,34.30
2023-02-27T10:20:09.747Z,36.10
2023-02-27T10:23:17.334Z,37.10
2023-02-27T10:26:22.790Z,38.90
2023-02-27T10:29:30.971Z,40.00
2023-02-27T10:32:37.265Z,40.60
2023-02-27T10:35:44.184Z,41.00
2023-02-27T10:38:51.776Z,41.50
2023-02-27T10:41:57.062Z,40.90
2023-02-27T10:45:02.442Z,39.50
2023-02-27T10:48:07.158Z,43.20
2023-02-27T10:51:26.826Z,44.70
2023-02-27T10:54:30.218Z,45.00
2023-02-27T10:57:41.716Z,45.40
2023-02-27T11:00:54.427Z,45.90
2023-02-27T11:03:58.101Z,44.90
2023-02-27T11:07:04.750Z,43.00
2023-02-27T11:10:19.020Z,41.20
2023-02-27T11:13:25.512Z,40.70
2023-02-27T11:16:30.084Z,40.80
2023-02-27T11:19:35.626Z,40.40
2023-02-27T11:22:38.841Z,40.80
2023-02-27T11:25:43.254Z,40.40
2023-02-27T11:28:46.583Z,40.00
2023-02-27T11:31:55.099Z,40.10
2023-02-27T11:34:58.350Z,40.40
2023-02-27T11:38:03.316Z,40.70
2023-02-27T11:41:09.527Z,41.00
2023-02-27T11:44:23.954Z,40.30
2023-02-27T11:47:44.233Z,39.60
2023-02-27T11:51:02.991Z,38.60
2023-02-27T11:54:11.908Z,39.20
2023-02-27T11:57:23.770Z,37.70
2023-02-27T12:00:33.108Z,36.20
2023-02-27T12:03:48.899Z,36.10
2023-02-27T12:06:56.631Z,35.20
2023-02-27T12:10:06.291Z,33.70
2023-02-27T12:13:16.135Z,34.20
2023-02-27T12:16:25.845Z,33.80
2023-02-27T12:19:37.723Z,34.00
2023-02-27T12:22:45.970Z,34.00
2023-02-27T12:25:53.989Z,34.20
2023-02-27T12:29:01.253Z,37.50
2023-02-27T12:32:15.950Z,38.50
2023-02-27T12:35:24.657Z,39.20
2023-02-27T12:38:27.971Z,39.60
2023-02-27T12:41:49.928Z,40.40
2023-02-27T12:45:19.691Z,40.50
2023-02-27T12:48:37.095Z,42.20
2023-02-27T12:51:49.696Z,42.70
2023-02-27T12:55:03.404Z,42.50
2023-02-27T12:58:23.572Z,42.20
2023-02-27T13:01:38.923Z,42.00
2023-02-27T13:04:47.654Z,42.50
2023-02-27T13:07:58.724Z,42.40
2023-02-27T13:11:08.978Z,42.60
2023-02-27T13:14:24.341Z,42.30
2023-02-27T13:17:39.833Z,43.20
2023-02-27T13:20:51.088Z,42.50
2023-02-27T13:24:06.826Z,42.90
2023-02-27T13:27:20.504Z,42.30
2023-02-27T13:30:28.393Z,41.20
2023-02-27T13:33:37.877Z,39.20
2023-02-27T13:36:45.118Z,38.40
2023-02-27T13:40:01.604Z,36.00
2023-02-27T13:43:27.325Z,32.70
2023-02-27T13:46:32.160Z,32.70
2023-02-27T13:49:44.332Z,33.10
2023-02-27T13:52:48.003Z,32.40
2023-02-27T13:55:54.768Z,31.40
2023-02-27T13:59:10.987Z,28.80
2023-02-27T14:02:32.640Z,27.90
2023-02-27T14:05:39.460Z,28.50
2023-02-27T14:08:50.505Z,29.90
2023-02-27T14:11:58.754Z,30.50
2023-02-27T14:15:03.445Z,32.00
2023-02-27T14:18:45.132Z,33.00
2023-02-27T14:21:57.840Z,33.90
2023-02-27T14:25:08.538Z,35.70
2023-02-27T14:28:26.652Z,36.00
2023-02-27T14:31:32.447Z,37.20
2023-02-27T14:34:38.900Z,38.20
2023-02-27T14:37:42.206Z,38.40
2023-02-27T14:41:08.900Z,38.80
2023-02-27T14:44:21.863Z,38.60
2023-02-27T14:47:30.486Z,39.10
2023-02-27T14:50:37.534Z,39.80
2023-02-27T14:53:40.796Z,40.20
2023-02-27T14:56:55.124Z,40.10
2023-02-27T14:59:59.704Z,40.80
2023-02-27T15:03:13.232Z,40.10
2023-02-27T15:06:19.203Z,40.20
2023-02-27T15:09:25.009Z,40.30
2023-02-27T15:12:29.286Z,40.90
2023-02-27T15:15:34.022Z,41.40
2023-02-27T15:18:41.528Z,41.80
2023-02-27T15:21:47.354Z,42.10
2023-02-27T15:24:51.014Z,42.10
2023-02-27T15:27:54.354Z,42.20
2023-02-27T15:30:59.228Z,42.80
2023-02-27T15:34:03.930Z,43.30
2023-02-27T15:37:07.813Z,44.00
2023-02-27T15:40:20.521Z,44.40
2023-02-27T15:43:25.527Z,44.10
2023-02-27T15:46:31.427Z,44.80
2023-02-27T15:49:34.933Z,45.70
2023-02-27T15:52:43.861Z,45.60
2023-02-27T15:55:51.471Z,46.60
2023-02-27T15:59:00.244Z,47.00
2023-02-27T16:02:06.242Z,47.20
2023-02-27T16:05:17.206Z,47.40
2023-02-27T16:08:22.360Z,47.50
2023-02-27T16:11:27.316Z,47.40
2023-02-27T16:14:38.342Z,47.30
2023-02-27T16:17:54.947Z,47.40
2023-02-27T16:21:11.295Z,47.40
2023-02-27T16:24:22.504Z,47.30
2023-02-27T16:27:27.935Z,47.70
2023-02-27T16:30:31.816Z,48.00
2023-02-27T16:33:39.285Z,48.30
2023-02-27T16:36:44.427Z,48.70
2023-02-27T16:39:48.952Z,48.90
2023-02-27T16:42:53.319Z,48.70
2023-02-27T16:45:58.397Z,48.40
2023-02-27T16:49:19.228Z,48.60
2023-02-27T16:52:23.376Z,48.70
2023-02-27T16:55:27.188Z,48.40
2023-02-27T16:58:31.236Z,48.30
2023-02-27T17:01:34.777Z,48.70
2023-02-27T17:04:44.331Z,48.50
2023-02-27T17:07:49.133Z,48.70
2023-02-27T17:10:53.465Z,49.00
2023-02-27T17:13:57.735Z,49.30
2023-02-27T17:17:01.841Z,48.90
2023-02-27T17:20:09.089Z,54.20
2023-02-27T17:23:15.188Z,54.00
2023-02-27T17:26:19.262Z,50.30
2023-02-27T17:29:24.024Z,49.80
2023-02-27T17:32:27.849Z,49.30
2023-02-27T17:35:33.263Z,48.80
2023-02-27T17:38:39.138Z,48.80
2023-02-27T17:41:44.449Z,49.10
2023-02-27T17:44:49.233Z,49.90
2023-02-27T17:47:55.319Z,49.50
2023-02-27T17:51:07.616Z,49.30
2023-02-27T17:54:13.232Z,49.20
2023-02-27T17:57:17.784Z,49.40
2023-02-27T18:00:23.037Z,49.60
2023-02-27T18:03:27.853Z,49.70
2023-02-27T18:06:33.995Z,49.90
2023-02-27T18:09:39.244Z,49.80
2023-02-27T18:12:44.877Z,49.40
2023-02-27T18:15:50.798Z,49.00
2023-02-27T18:18:55.214Z,48.80
2023-02-27T18:22:03.061Z,49.30
2023-02-27T18:25:08.949Z,49.20
2023-02-27T18:28:16.075Z,49.40
2023-02-27T18:31:23.478Z,49.40
2023-02-27T18:34:28.811Z,49.60
2023-02-27T18:37:36.055Z,49.40
2023-02-27T18:40:40.244Z,49.70
2023-02-27T18:43:45.913Z,49.70
2023-02-27T18:46:51.388Z,49.30
2023-02-27T18:49:56.347Z,49.00
2023-02-27T18:53:03.309Z,49.30
2023-02-27T18:56:10.396Z,49.30
2023-02-27T18:59:15.264Z,49.00
2023-02-27T19:02:21.695Z,49.40
2023-02-27T19:05:26.069Z,49.90
2023-02-27T19:08:33.060Z,50.20
2023-02-27T19:11:38.923Z,50.40
2023-02-27T19:14:44.396Z,50.60
2023-02-27T19:17:49.163Z,50.20
2023-02-27T19:20:57.365Z,50.30
2023-02-27T19:24:05.505Z,50.50
2023-02-27T19:27:12.469Z,51.00
2023-02-27T19:30:17.865Z,50.20
2023-02-27T19:33:22.852Z,50.70
2023-02-27T19:36:31.854Z,50.80
2023-02-27T19:39:38.451Z,50.90
2023-02-27T19:42:45.751Z,50.80
2023-02-27T19:45:50.770Z,50.80
2023-02-27T19:48:59.855Z,50.80
2023-02-27T19:52:04.920Z,50.80
2023-02-27T19:55:12.357Z,50.80
2023-02-27T19:58:17.168Z,50.80
2023-02-27T20:01:25.564Z,50.70
2023-02-27T20:04:30.355Z,51.00
2023-02-27T20:07:37.931Z,50.70
2023-02-27T20:10:44.654Z,50.70
2023-02-27T20:13:50.760Z,50.90
2023-02-27T20:16:55.991Z,51.30
2023-02-27T20:20:00.658Z,51.30
2023-02-27T20:23:05.842Z,51.80
2023-02-27T20:26:19.976Z,51.60
2023-02-27T20:29:26.359Z,50.80
2023-02-27T20:32:31.627Z,50.90
2023-02-27T20:35:40.151Z,51.20
2023-02-27T20:38:45.419Z,50.80
2023-02-27T20:41:56.082Z,50.90
2023-02-27T20:45:00.765Z,51.00
2023-02-27T20:48:05.087Z,51.00
2023-02-27T20:51:10.515Z,50.90
2023-02-27T20:54:20.808Z,51.00
2023-02-27T20:57:28.697Z,51.00
2023-02-27T21:00:33.254Z,51.00
2023-02-27T21:03:40.003Z,50.70
2023-02-27T21:06:46.338Z,50.60
2023-02-27T21:09:50.926Z,50.40
2023-02-27T21:12:56.226Z,50.30
2023-02-27T21:16:01.592Z,50.20
2023-02-27T21:19:07.543Z,50.00
2023-02-27T21:22:11.430Z,50.20
2023-02-27T21:25:15.804Z,49.90
2023-02-27T21:28:21.084Z,49.80
2023-02-27T21:31:26.235Z,49.60
2023-02-27T21:34:30.089Z,49.70
2023-02-27T21:37:33.497Z,49.80
2023-02-27T21:40:37.256Z,50.10
2023-02-27T21:43:42.450Z,50.40
2023-02-27T21:46:46.307Z,50.60
2023-02-27T21:49:49.513Z,50.40
2023-02-27T21:52:52.720Z,50.00
2023-02-27T21:55:56.261Z,50.50
2023-02-27T21:59:02.737Z,50.70
2023-02-27T22:02:05.973Z,50.70
2023-02-27T22:05:09.883Z,51.00
2023-02-27T22:08:13.079Z,50.70
2023-02-27T22:11:16.273Z,50.40
2023-02-27T22:14:20.873Z,50.40
2023-02-27T22:17:24.058Z,50.30
2023-02-27T22:20:27.272Z,50.30
2023-02-27T22:23:30.847Z,50.40
2023-02-27T22:26:34.858Z,50.30
2023-02-27T22:29:41.169Z,50.30
2023-02-27T22:32:45.416Z,50.40
2023-02-27T22:35:48.672Z,50.50
2023-02-27T22:38:52.886Z,50.50
2023-02-27T22:41:56.967Z,50.70
2023-02-27T22:45:01.608Z,51.10
2023-02-27T22:48:04.939Z,51.00
2023-02-27T22:51:12.628Z,51.10
2023-02-27T22:54:16.945Z,52.00
2023-02-27T22:57:20.225Z,54.50
2023-02-27T23:00:24.953Z,53.00
2023-02-27T23:03:28.357Z,52.50
2023-02-27T23:06:34.027Z,52.20
2023-02-27T23:09:37.241Z,51.70
2023-02-27T23:12:40.462Z,51.60
2023-02-27T23:15:47.682Z,51.80
2023-02-27T23:18:54.017Z,51.80
2023-02-27T23:21:57.216Z,52.10
2023-02-27T23:25:00.543Z,52.30
2023-02-27T23:28:04.581Z,53.00
2023-02-27T23:31:10.127Z,52.60
2023-02-27T23:34:13.589Z,52.30
2023-02-27T23:37:16.900Z,52.20
2023-02-27T23:40:20.491Z,52.30
2023-02-27T23:43:24.172Z,52.40
2023-02-27T23:46:30.797Z,52.60
2023-02-27T23:49:34.151Z,52.80
2023-02-27T23:52:37.532Z,52.80
2023-02-27T23:55:41.516Z,52.90
2023-02-27T23:58:45.126Z,53.10
